KJ7BRE-1 Weather Reports


time (UTC)temp
C
wind
direction
speed
KPH
gust
KPH
rain 1hr
cm
rain 24hr
cm
rain mn
cm
humidity
%
barometer
mb
20260505193911 16 261 1.6 3.2 0.00 0.00 0.00 68 1010.5
20260505193410 16 351 4.8 8.0 0.00 0.00 0.00 67 1010.5
20260505192909 16 18 1.6 3.2 0.00 0.00 0.00 67 1010.5
20260505192408 16 225 0.0 3.2 0.00 0.00 0.00 67 1010.8
20260505191906 16 27 3.2 3.2 0.00 0.00 0.00 67 1010.5
20260505191405 16 180 1.6 1.6 0.00 0.00 0.00 68 1010.5
20260505190904 16 54 1.6 8.0 0.00 0.00 0.00 67 1010.5
20260505190403 16 72 6.4 6.4 0.00 0.00 0.00 68 1010.8
20260505185902 17 108 1.6 4.8 0.00 0.00 0.00 67 1010.5
20260505185400 16 99 3.2 3.2 0.00 0.00 0.00 68 1010.5
20260505184859 16 279 3.2 1.6 0.00 0.00 0.00 69 1010.8
20260505184358 16 351 4.8 6.4 0.00 0.00 0.00 69 1010.8
20260505183856 15 81 3.2 3.2 0.00 0.00 0.00 70 1010.8
20260505183355 16 279 0.0 1.6 0.00 0.00 0.00 70 1010.5
20260505182854 15 153 0.0 1.6 0.00 0.00 0.00 72 1010.8
20260505182353 15 153 3.2 6.4 0.00 0.00 0.00 72 1010.5
20260505181852 15 126 1.6 3.2 0.00 0.00 0.00 72 1010.8
20260505181350 15 261 0.0 0.0 0.00 0.00 0.00 73 1010.5
20260505180849 15 180 3.2 4.8 0.00 0.00 0.00 73 1010.5
20260505180348 15 261 1.6 3.2 0.00 0.00 0.00 74 1010.5
20260505175847 14 342 1.6 0.0 0.00 0.00 0.00 74 1010.8
20260505175345 14 27 1.6 1.6 0.00 0.00 0.00 75 1010.8
20260505174844 14 171 1.6 3.2 0.00 0.00 0.00 75 1010.5
20260505174343 14 108 1.6 3.2 0.00 0.00 0.00 74 1010.5
20260505173842 14 288 0.0 1.6 0.00 0.00 0.00 75 1010.8
20260505173340 14 333 1.6 1.6 0.00 0.00 0.00 76 1010.8
20260505172839 13 225 0.0 0.0 0.00 0.00 0.00 76 1010.5
20260505172338 13 99 0.0 3.2 0.00 0.00 0.00 77 1010.5
20260505171836 13 18 0.0 3.2 0.00 0.00 0.00 77 1010.2
20260505171335 13 279 1.6 3.2 0.00 0.00 0.00 77 1010.5
20260505170834 13 27 3.2 4.8 0.00 0.00 0.00 77 1010.5
20260505165832 13 144 0.0 0.0 0.00 0.00 0.00 77 1010.5
20260505165331 13 9 1.6 4.8 0.00 0.00 0.00 77 1010.2
20260505164829 13 351 0.0 0.0 0.00 0.00 0.00 76 1010.5
20260505164328 13 81 0.0 1.6 0.00 0.00 0.00 76 1010.2
20260505163827 13 342 1.6 3.2 0.00 0.00 0.00 77 1010.5
20260505163326 13 135 3.2 4.8 0.00 0.00 0.00 77 1010.2
20260505162824 13 63 0.0 3.2 0.00 0.00 0.00 77 1010.2
20260505162323 13 234 1.6 1.6 0.00 0.00 0.00 75 1010.2
20260505161822 13 351 0.0 1.6 0.00 0.00 0.00 78 1010.2
20260505161321 13 180 1.6 3.2 0.00 0.00 0.00 77 1010.2
20260505160819 13 27 3.2 3.2 0.00 0.00 0.00 76 1010.2
20260505160318 13 333 1.6 3.2 0.00 0.00 0.00 77 1010.2
20260505153311 13 225 1.6 3.2 0.00 0.00 0.00 77 1010.2
20260505152810 13 207 1.6 1.6 0.00 0.00 0.00 78 1010.2
20260505152309 13 225 0.0 3.2 0.00 0.00 0.00 78 1010.2
20260505151306 13 45 0.0 3.2 0.00 0.00 0.00 79 1010.2
20260505150805 13 324 0.0 1.6 0.00 0.00 0.00 80 1010.2
20260505150304 12 90 0.0 1.6 0.00 0.00 0.00 81 1010.2
20260505140249 12 279 0.0 0.0 0.00 0.00 0.00 81 1009.5
20260505130234 12 198 0.0 3.2 0.00 0.00 0.00 81 1009.1
20260505124731 12 279 0.0 0.0 0.00 0.00 0.00 81 1009.1
20260505124230 12 54 0.0 1.6 0.00 0.00 0.00 81 1008.8
20260505123728 12 126 0.0 1.6 0.00 0.00 0.00 81 1009.1
20260505123227 12 198 0.0 1.6 0.00 0.00 0.00 81 1008.8
20260505122726 12 162 0.0 0.0 0.00 0.00 0.00 81 1008.8
20260505122225 12 108 0.0 0.0 0.00 0.00 0.00 81 1008.8
20260505121724 12 225 0.0 0.0 0.00 0.00 0.00 81 1008.8
20260505121222 12 315 0.0 1.6 0.00 0.00 0.00 81 1008.8
20260505120721 12 153 0.0 1.6 0.00 0.00 0.00 81 1008.8
20260505120220 12 234 0.0 0.0 0.00 0.00 0.00 81 1009.1
20260505115719 12 153 1.6 3.2 0.00 0.00 0.00 81 1008.8
20260505115217 12 45 0.0 1.6 0.00 0.00 0.00 81 1009.1
20260505114716 12 225 0.0 0.0 0.00 0.00 0.00 81 1009.1
20260505114215 12 351 0.0 0.0 0.00 0.00 0.00 81 1009.1
20260505113714 12 234 0.0 0.0 0.00 0.00 0.00 81 1008.8
20260505113213 12 162 0.0 0.0 0.00 0.00 0.00 81 1008.8
20260505112711 12 72 0.0 1.6 0.00 0.00 0.00 81 1008.8
20260505112210 12 216 0.0 0.0 0.00 0.00 0.00 82 1008.8
20260505111709 12 198 0.0 0.0 0.00 0.00 0.00 82 1008.8
20260505111208 12 180 0.0 0.0 0.00 0.00 0.00 82 1008.8
20260505110706 12 171 0.0 1.6 0.00 0.00 0.00 82 1008.8
20260505110205 12 207 0.0 1.6 0.00 0.00 0.00 82 1008.5
20260505102155 12 342 0.0 0.0 0.00 0.00 0.00 82 1008.5
20260505101654 12 171 0.0 0.0 0.00 0.00 0.00 83 1008.1
20260505101153 11 36 0.0 0.0 0.00 0.00 0.00 84 1008.5
20260505100652 11 126 0.0 0.0 0.00 0.00 0.00 83 1008.5
20260505100150 11 153 0.0 0.0 0.00 0.00 0.00 84 1008.5
20260505095649 11 90 0.0 0.0 0.00 0.00 0.00 85 1008.5
20260505095148 11 0 0.0 0.0 0.00 0.00 0.00 85 1008.5
20260505094647 11 99 0.0 0.0 0.00 0.00 0.00 85 1008.5
20260505094145 11 153 0.0 0.0 0.00 0.00 0.00 85 1008.1
20260505093644 11 99 0.0 0.0 0.00 0.00 0.00 84 1008.5
20260505093143 11 135 0.0 0.0 0.00 0.00 0.00 84 1008.1
20260505092642 11 27 0.0 0.0 0.00 0.00 0.00 84 1008.1
20260505092141 11 27 0.0 0.0 0.00 0.00 0.00 83 1008.5
20260505091639 11 225 0.0 0.0 0.00 0.00 0.00 83 1008.5
20260505091138 11 135 0.0 0.0 0.00 0.00 0.00 82 1008.5
20260505090637 12 18 0.0 0.0 0.00 0.00 0.00 82 1008.1
20260505090136 12 108 0.0 1.6 0.00 0.00 0.00 81 1008.1
20260505085635 12 18 0.0 0.0 0.00 0.00 0.00 81 1007.8
20260505085133 12 45 0.0 0.0 0.00 0.00 0.00 81 1007.8
20260505084632 12 90 0.0 1.6 0.00 0.00 0.00 80 1007.8
20260505084131 12 18 0.0 1.6 0.00 0.00 0.00 80 1008.1
20260505083630 12 126 3.2 3.2 0.00 0.00 0.00 79 1007.8
20260505083129 12 135 1.6 4.8 0.00 0.00 0.00 79 1007.8
20260505082627 12 297 0.0 3.2 0.00 0.00 0.00 79 1008.1
20260505081625 13 126 1.6 3.2 0.00 0.00 0.00 78 1008.1
20260505081124 13 126 3.2 4.8 0.00 0.00 0.00 78 1007.8
20260505080622 13 135 1.6 4.8 0.00 0.00 0.00 78 1007.8
20260505080121 13 90 0.0 1.6 0.00 0.00 0.00 78 1007.8
20260505075620 13 234 0.0 0.0 0.00 0.00 0.00 77 1007.8
20260505075119 13 9 0.0 3.2 0.00 0.00 0.00 77 1007.5
20260505074617 13 117 0.0 3.2 0.00 0.00 0.00 77 1007.8
20260505074116 13 126 3.2 8.0 0.00 0.00 0.00 77 1007.5
20260505073615 13 135 1.6 1.6 0.00 0.00 0.00 77 1007.5
20260505073114 13 288 1.6 1.6 0.00 0.00 0.00 77 1007.5
20260505072613 13 54 0.0 0.0 0.00 0.00 0.00 77 1007.5
20260505072111 13 315 1.6 3.2 0.00 0.00 0.00 77 1007.1
20260505071610 13 27 0.0 1.6 0.00 0.00 0.00 77 1007.1
20260505071109 14 99 0.0 1.6 0.00 0.00 0.00 77 1007.1
20260505070608 14 90 0.0 0.0 0.00 0.00 0.00 76 1007.1
20260505070107 14 18 0.0 1.6 0.00 0.00 0.00 76 1007.1
20260505065605 14 27 0.0 0.0 0.00 0.00 0.00 76 1006.8
20260505065104 14 162 0.0 0.0 0.00 0.00 0.00 76 1007.1
20260505064603 14 36 0.0 0.0 0.00 0.00 0.00 77 1006.8
20260505064102 14 108 0.0 0.0 0.00 0.00 0.00 76 1006.8
20260505063600 14 207 0.0 1.6 0.00 0.00 0.00 75 1006.8
20260505063059 14 18 0.0 1.6 0.00 0.00 0.00 75 1006.4
20260505062558 15 279 0.0 3.2 0.00 0.00 0.00 75 1006.8
20260505062057 15 198 0.0 0.0 0.00 0.00 0.00 75 1006.8
20260505061555 15 36 0.0 1.6 0.00 0.00 0.00 74 1006.4
20260505061054 15 99 0.0 0.0 0.00 0.00 0.00 74 1006.8
20260505060553 15 117 0.0 0.0 0.00 0.00 0.00 74 1006.4
20260505060052 15 333 0.0 0.0 0.00 0.00 0.00 73 1006.8
20260505055550 16 306 0.0 0.0 0.00 0.00 0.00 73 1006.4
20260505055049 16 81 0.0 1.6 0.00 0.00 0.00 72 1006.8
20260505054047 16 180 0.0 1.6 0.00 0.00 0.00 70 1006.4
20260505053545 16 207 0.0 3.2 0.00 0.00 0.00 70 1006.1
20260505053044 17 126 1.6 3.2 0.00 0.00 0.00 69 1006.1
20260505052543 17 261 0.0 3.2 0.00 0.00 0.00 68 1006.1
20260505052042 17 198 0.0 0.0 0.00 0.00 0.00 67 1006.1
20260505051039 18 216 0.0 0.0 0.00 0.00 0.00 65 1006.1
20260505050538 18 99 1.6 1.6 0.00 0.00 0.00 65 1006.1
20260505041526 18 45 0.0 0.0 0.00 0.00 0.00 66 1005.4
20260505041025 18 333 1.6 1.6 0.00 0.00 0.00 65 1005.1
20260505040523 18 135 1.6 1.6 0.00 0.00 0.00 65 1005.1
20260505040022 19 81 3.2 4.8 0.00 0.00 0.00 64 1005.1
20260505035521 19 315 0.0 3.2 0.00 0.00 0.00 64 1005.1
20260505035020 19 54 1.6 0.0 0.00 0.00 0.00 65 1005.1
20260505034519 19 153 0.0 0.0 0.00 0.00 0.00 66 1004.7
20260505034017 19 0 1.6 1.6 0.00 0.00 0.00 66 1004.7
20260505033516 20 297 0.0 1.6 0.00 0.00 0.00 66 1004.7
20260505033015 20 261 0.0 1.6 0.00 0.00 0.00 66 1004.4
20260505032514 20 234 0.0 3.2 0.00 0.00 0.00 65 1004.4
20260505032013 20 153 0.0 3.2 0.00 0.00 0.00 65 1004.1
20260505031511 20 18 1.6 3.2 0.00 0.00 0.00 65 1004.4
20260505031010 20 18 0.0 0.0 0.00 0.00 0.00 66 1004.4
20260505030509 21 324 0.0 0.0 0.00 0.00 0.00 67 1004.1
20260505030008 21 279 1.6 1.6 0.00 0.00 0.00 65 1004.1
20260505025506 21 117 0.0 0.0 0.00 0.00 0.00 65 1004.1
20260505025005 21 216 0.0 0.0 0.00 0.00 0.00 64 1004.1
20260505024504 21 207 0.0 1.6 0.00 0.00 0.00 64 1004.1
20260505024003 21 189 1.6 6.4 0.00 0.00 0.00 63 1004.1
20260505023501 21 351 4.8 3.2 0.00 0.00 0.00 62 1004.1
20260505023000 21 144 4.8 4.8 0.00 0.00 0.00 62 1004.1
20260505022459 21 144 1.6 3.2 0.00 0.00 0.00 62 1004.1
20260505021958 21 270 3.2 3.2 0.00 0.00 0.00 61 1004.1
20260505021456 21 90 3.2 1.6 0.00 0.00 0.00 62 1004.1
20260505020955 22 0 3.2 0.0 0.00 0.00 0.00 61 1004.1
20260505020454 22 90 0.0 3.2 0.00 0.00 0.00 61 1004.1
20260505015953 22 279 1.6 3.2 0.00 0.00 0.00 61 1004.1
20260505015451 22 252 3.2 4.8 0.00 0.00 0.00 61 1004.1
20260505014950 22 351 4.8 1.6 0.00 0.00 0.00 61 1004.1
20260505014449 22 189 6.4 11.3 0.00 0.00 0.00 60 1004.1
20260505013948 22 207 3.2 9.7 0.00 0.00 0.00 60 1004.1
20260505013446 22 162 3.2 6.4 0.00 0.00 0.00 59 1004.1
20260505012945 22 126 1.6 1.6 0.00 0.00 0.00 60 1004.4
20260505012444 22 288 3.2 6.4 0.00 0.00 0.00 60 1004.1
20260505011943 22 63 1.6 6.4 0.00 0.00 0.00 60 1004.1
20260505011441 22 207 4.8 14.5 0.00 0.00 0.00 59 1004.4
20260505010940 22 45 3.2 6.4 0.00 0.00 0.00 59 1004.1
20260505010439 22 9 4.8 6.4 0.00 0.00 0.00 59 1004.4
20260505005938 22 216 4.8 9.7 0.00 0.00 0.00 59 1004.4
20260505005437 22 243 3.2 6.4 0.00 0.00 0.00 59 1004.4
20260505004935 22 153 3.2 6.4 0.00 0.00 0.00 57 1004.4
20260505004434 22 27 3.2 6.4 0.00 0.00 0.00 58 1004.4
20260505003933 22 315 1.6 1.6 0.00 0.00 0.00 60 1004.4
20260505003432 22 99 4.8 8.0 0.00 0.00 0.00 58 1004.4
20260505002931 22 342 4.8 3.2 0.00 0.00 0.00 57 1004.4
20260505002429 23 207 3.2 4.8 0.00 0.00 0.00 57 1004.4
20260505001928 23 153 3.2 3.2 0.00 0.00 0.00 56 1004.7
20260505001427 23 81 3.2 4.8 0.00 0.00 0.00 57 1004.4
20260505000926 23 45 3.2 3.2 0.00 0.00 0.00 55 1004.4
20260505000424 23 135 4.8 6.4 0.00 0.00 0.00 56 1004.4
20260504235923 23 306 6.4 6.4 0.00 0.00 0.00 55 1004.7
20260504235422 23 252 3.2 3.2 0.00 0.00 0.00 54 1004.4
20260504234921 23 171 3.2 9.7 0.00 0.00 0.00 53 1004.7
20260504234419 23 243 6.4 6.4 0.00 0.00 0.00 56 1004.7
20260504233918 22 27 4.8 6.4 0.00 0.00 0.00 55 1004.7
20260504233417 23 63 3.2 3.2 0.00 0.00 0.00 55 1004.7
20260504232916 23 270 3.2 6.4 0.00 0.00 0.00 54 1004.7
20260504232415 23 144 4.8 6.4 0.00 0.00 0.00 53 1005.1
20260504231914 23 234 1.6 3.2 0.00 0.00 0.00 55 1004.7
20260504231412 23 126 6.4 19.3 0.00 0.00 0.00 53 1005.1
20260504230911 23 243 1.6 3.2 0.00 0.00 0.00 54 1005.1
20260504230410 23 27 4.8 8.0 0.00 0.00 0.00 54 1005.1
20260504225909 23 333 3.2 6.4 0.00 0.00 0.00 55 1005.1
20260504225408 23 288 3.2 6.4 0.00 0.00 0.00 54 1005.1
20260504224907 23 126 4.8 6.4 0.00 0.00 0.00 55 1005.1
20260504224405 23 126 3.2 4.8 0.00 0.00 0.00 53 1005.4
20260504223904 23 63 1.6 4.8 0.00 0.00 0.00 53 1005.4
20260504223403 23 279 1.6 3.2 0.00 0.00 0.00 53 1005.1
20260504222902 22 288 4.8 8.0 0.00 0.00 0.00 54 1005.4
20260504222400 23 243 4.8 11.3 0.00 0.00 0.00 53 1005.4
20260504221859 22 189 4.8 3.2 0.00 0.00 0.00 55 1005.4
20260504221358 22 135 6.4 9.7 0.00 0.00 0.00 54 1005.8
20260504220857 22 324 3.2 3.2 0.00 0.00 0.00 55 1005.4
20260504220355 22 63 3.2 8.0 0.00 0.00 0.00 54 1005.8
20260504215854 22 342 4.8 11.3 0.00 0.00 0.00 54 1005.8
20260504215353 22 198 3.2 3.2 0.00 0.00 0.00 56 1005.8
20260504214852 21 279 4.8 6.4 0.00 0.00 0.00 57 1005.8
20260504214350 22 225 3.2 9.7 0.00 0.00 0.00 54 1005.8
20260504213849 22 144 4.8 16.1 0.00 0.00 0.00 55 1005.8
20260504213348 21 90 4.8 3.2 0.00 0.00 0.00 58 1006.1
20260504212847 21 234 3.2 6.4 0.00 0.00 0.00 57 1006.1
20260504212345 22 351 3.2 6.4 0.00 0.00 0.00 56 1006.1
20260504211844 21 216 3.2 1.6 0.00 0.00 0.00 60 1006.4
20260504211343 21 45 3.2 3.2 0.00 0.00 0.00 59 1006.1
20260504210842 20 216 6.4 9.7 0.00 0.00 0.00 60 1006.4
20260504205839 20 351 3.2 8.0 0.00 0.00 0.00 60 1006.8
20260504205338 19 126 4.8 8.0 0.00 0.00 0.00 62 1006.8
20260504204837 18 351 8.0 3.2 0.00 0.00 0.00 63 1006.8
20260504204336 18 27 8.0 3.2 0.00 0.00 0.00 64 1006.8
20260504203834 18 162 6.4 6.4 0.00 0.00 0.00 64 1006.8
20260504203333 20 279 3.2 6.4 0.00 0.00 0.00 60 1007.1
20260504202832 20 135 3.2 9.7 0.00 0.00 0.00 62 1006.8
20260504202331 19 342 6.4 4.8 0.00 0.00 0.00 62 1007.1
20260504201829 19 72 3.2 8.0 0.00 0.00 0.00 61 1007.1
20260504201328 18 9 3.2 3.2 0.00 0.00 0.00 63 1007.1
20260504200827 18 351 1.6 3.2 0.00 0.00 0.00 66 1007.1
20260504200326 17 81 8.0 4.8 0.00 0.00 0.00 65 1007.5
20260504195824 18 27 3.2 6.4 0.00 0.00 0.00 63 1007.1
20260504195323 17 36 3.2 3.2 0.00 0.00 0.00 66 1007.5
20260504194822 17 171 9.7 8.0 0.00 0.00 0.00 67 1007.5
20260504194321 17 315 4.8 9.7 0.00 0.00 0.00 67 1007.5